»·PEaware :: UAL481 KLAS-KDEN

UAL481 :: KLAS-KDEN

FLIGHT INFORMATION

Flight Status: Arrived
Operator:
United Airlines
More flights by this operator :: More flights under this callsign
Pilot: Kaleb W. (11686)
Aircraft: BOEING 737-800
(B738)
More flights by this aircraft type
Origin: KLAS Harry Reid Intl
United States
Destination: KDEN Denver Intl
United States
More flights between these airports :: More routes between these airports
Route: +TRALR9 DVC WOLLF TELLR2
File this flight plan on PilotEdge
Remarks: RMK / POWERED BY SIMBRIEF
Altitude:
(Current/Filed)
37,000ft
Speed:
(Current/Filed)
457kts
Departed: 15-Nov-18 12:01 PM
Arrived: 15-Nov-18 01:37 PM
Distance/Time
Traveled:
545nm/1:36
Distance/Time
To Go:
Arrived

Flight Plot

Page will automatically refresh every two minutes.

Flight plan parsing failed; only flown route is shown


Map Options




Map Legend


Flown Route
Filed Route
Departure Airport
Arrival Airport
Navaid (VOR, NDB)
Fix

Horizontal Profiles

Position Reports

Time Latitude Longitude Heading Altitude Ground
Speed
15-Nov-18 11:36 36.083264 -115.138896 220 2064ft 0kts
15-Nov-18 11:37 36.083264 -115.138896 220 2064ft 0kts
15-Nov-18 11:38 36.083264 -115.138896 220 2064ft 0kts
15-Nov-18 11:39 36.083264 -115.138896 220 2064ft 0kts
15-Nov-18 11:40 36.083264 -115.138896 220 2064ft 0kts
15-Nov-18 11:41 36.083264 -115.138896 220 2064ft 0kts
15-Nov-18 11:42 36.083264 -115.138896 220 2064ft 0kts
15-Nov-18 11:43 36.083264 -115.138896 220 2064ft 0kts
15-Nov-18 11:44 36.083264 -115.138896 220 2064ft 0kts
15-Nov-18 11:45 36.083264 -115.138896 220 2064ft 0kts
15-Nov-18 11:46 36.083264 -115.138896 220 2064ft 0kts
15-Nov-18 11:47 36.083264 -115.138896 220 2064ft 0kts
15-Nov-18 11:48 36.083341 -115.138814 220 2063ft 2kts
15-Nov-18 11:49 36.083640 -115.138225 275 2061ft 2kts
15-Nov-18 11:50 36.083483 -115.137848 315 2060ft 0kts
15-Nov-18 11:51 36.083483 -115.137848 315 2060ft 0kts
15-Nov-18 11:52 36.084057 -115.138683 287 2061ft 8kts
15-Nov-18 11:53 36.082905 -115.141196 199 2071ft 11kts
15-Nov-18 11:54 36.080291 -115.141589 180 2080ft 0kts
15-Nov-18 11:55 36.080291 -115.141589 180 2080ft 0kts
15-Nov-18 11:56 36.080157 -115.141589 180 2080ft 3kts
15-Nov-18 11:57 36.078268 -115.139383 89 2077ft 17kts
15-Nov-18 11:58 36.078272 -115.133475 90 2059ft 21kts
15-Nov-18 11:59 36.078276 -115.126052 90 2041ft 20kts
15-Nov-18 12:00 36.077441 -115.121481 140 2036ft 0kts
15-Nov-18 12:01 36.077441 -115.121481 140 2036ft 0kts
15-Nov-18 12:02 36.077441 -115.121481 140 2036ft 0kts
15-Nov-18 12:03 36.077300 -115.121384 160 2037ft 4kts
15-Nov-18 12:04 36.076426 -115.129299 269 2051ft 102kts
15-Nov-18 12:05 36.076402 -115.184186 270 3522ft 186kts
15-Nov-18 12:06 36.066215 -115.261232 237 5119ft 274kts
15-Nov-18 12:07 36.000182 -115.303761 177 7024ft 282kts
15-Nov-18 12:08 35.922831 -115.284596 157 9428ft 291kts
15-Nov-18 12:09 35.874636 -115.225983 113 11523ft 316kts
15-Nov-18 12:10 35.864738 -115.099103 87 14999ft 330kts
15-Nov-18 12:11 35.897272 -114.995041 59 17723ft 337kts
15-Nov-18 12:12 35.935709 -114.910061 58 19792ft 347kts
15-Nov-18 12:13 35.980065 -114.801765 61 22015ft 362kts
15-Nov-18 12:14 36.031548 -114.668168 60 24321ft 378kts
15-Nov-18 12:15 36.069738 -114.568956 60 25811ft 390kts
15-Nov-18 12:16 36.116510 -114.447064 60 27447ft 403kts
15-Nov-18 12:17 36.164675 -114.321061 60 28948ft 417kts
15-Nov-18 12:18 36.201229 -114.183460 77 30549ft 432kts
15-Nov-18 12:19 36.218774 -114.036181 77 32186ft 434kts
15-Nov-18 12:20 36.236215 -113.888026 77 33682ft 436kts
15-Nov-18 12:21 36.253456 -113.740106 77 35132ft 434kts
15-Nov-18 12:22 36.270428 -113.592890 77 36465ft 432kts
15-Nov-18 12:23 36.287233 -113.445658 77 37332ft 440kts
15-Nov-18 12:24 36.304726 -113.291377 78 37340ft 469kts
15-Nov-18 12:25 36.342598 -113.139964 59 37329ft 462kts
15-Nov-18 12:26 36.397423 -112.996037 60 37331ft 461kts
15-Nov-18 12:27 36.450660 -112.852531 59 37330ft 454kts
15-Nov-18 12:28 36.502713 -112.711738 59 37333ft 450kts
15-Nov-18 12:29 36.554873 -112.569917 59 37331ft 451kts
15-Nov-18 12:30 36.606465 -112.428895 59 37326ft 451kts
15-Nov-18 12:31 36.657768 -112.287975 59 37343ft 451kts
15-Nov-18 12:32 36.709068 -112.146332 59 37339ft 451kts
15-Nov-18 12:33 36.760448 -112.003770 59 37344ft 451kts
15-Nov-18 12:34 36.811574 -111.861203 59 37346ft 451kts
15-Nov-18 12:35 36.862371 -111.718847 59 37345ft 451kts
15-Nov-18 12:36 36.913060 -111.576086 59 37345ft 451kts
15-Nov-18 12:37 36.963723 -111.432689 60 37346ft 451kts
15-Nov-18 12:38 37.014007 -111.289722 60 37342ft 455kts
15-Nov-18 12:39 37.064936 -111.144176 61 37340ft 458kts
15-Nov-18 12:40 37.114949 -111.000545 61 37351ft 457kts
15-Nov-18 12:41 37.165280 -110.855226 62 37349ft 453kts
15-Nov-18 12:42 37.215104 -110.710660 62 37351ft 454kts
15-Nov-18 12:43 37.265003 -110.565148 62 37359ft 454kts
15-Nov-18 12:44 37.314472 -110.420167 62 37377ft 452kts
15-Nov-18 12:45 37.362955 -110.277387 62 37384ft 451kts
15-Nov-18 12:46 37.411964 -110.132378 62 37384ft 451kts
15-Nov-18 12:47 37.460691 -109.987480 62 37384ft 451kts
15-Nov-18 12:48 37.509219 -109.842450 62 37384ft 451kts
15-Nov-18 12:49 37.557671 -109.696938 62 37385ft 451kts
15-Nov-18 12:50 37.605964 -109.551192 62 37385ft 451kts
15-Nov-18 12:51 37.653963 -109.405623 62 37385ft 451kts
15-Nov-18 12:52 37.701575 -109.260550 63 37381ft 451kts
15-Nov-18 12:53 37.749273 -109.114527 63 37380ft 450kts
15-Nov-18 12:54 37.796735 -108.968531 64 37376ft 449kts
15-Nov-18 12:55 37.856549 -108.832893 53 37355ft 443kts
15-Nov-18 12:56 37.921683 -108.700753 54 37345ft 444kts
15-Nov-18 12:57 37.986439 -108.567574 54 37345ft 444kts
15-Nov-18 12:58 38.051035 -108.434228 54 37346ft 444kts
15-Nov-18 12:59 38.111576 -108.308770 55 37354ft 445kts
15-Nov-18 13:00 38.175865 -108.174999 55 37355ft 445kts
15-Nov-18 13:01 38.239918 -108.041176 55 37362ft 445kts
15-Nov-18 13:02 38.303905 -107.906944 55 37367ft 445kts
15-Nov-18 13:03 38.367734 -107.772485 55 37366ft 445kts
15-Nov-18 13:04 38.429913 -107.639462 55 37350ft 423kts
15-Nov-18 13:05 38.487267 -107.514394 56 37353ft 396kts
15-Nov-18 13:06 38.540238 -107.396474 56 37361ft 371kts
15-Nov-18 13:07 38.588888 -107.287749 56 37454ft 344kts
15-Nov-18 13:08 38.635640 -107.183955 55 37599ft 342kts
15-Nov-18 13:09 38.683483 -107.076618 56 37605ft 370kts
15-Nov-18 13:10 38.737244 -106.955438 57 35277ft 421kts
15-Nov-18 13:11 38.797305 -106.819161 58 31201ft 449kts
15-Nov-18 13:12 38.857432 -106.682046 58 28630ft 434kts
15-Nov-18 13:13 38.917869 -106.550541 56 27347ft 427kts
15-Nov-18 13:14 38.978797 -106.418863 56 27340ft 431kts
15-Nov-18 13:15 39.038814 -106.287986 57 26421ft 431kts
15-Nov-18 13:16 39.097729 -106.157870 57 24101ft 415kts
15-Nov-18 13:17 39.131045 -106.083409 58 22756ft 406kts
15-Nov-18 13:18 39.177018 -105.979335 58 20885ft 395kts
15-Nov-18 13:19 39.230004 -105.858973 58 18718ft 382kts
15-Nov-18 13:20 39.281478 -105.741618 58 17152ft 372kts
15-Nov-18 13:21 39.332338 -105.625372 58 17157ft 372kts
15-Nov-18 13:22 39.383026 -105.508979 62 17120ft 372kts
15-Nov-18 13:23 39.399163 -105.384692 85 17057ft 336kts
15-Nov-18 13:24 39.404553 -105.264842 86 16922ft 337kts
15-Nov-18 13:25 39.408180 -105.186223 86 15951ft 331kts
15-Nov-18 13:26 39.411901 -105.103773 86 14901ft 325kts
15-Nov-18 13:27 39.416987 -104.987648 85 13228ft 323kts
15-Nov-18 13:28 39.424329 -104.879086 77 13048ft 280kts
15-Nov-18 13:29 39.433011 -104.782723 77 11649ft 261kts
15-Nov-18 13:30 39.455363 -104.698172 50 11043ft 250kts
15-Nov-18 13:31 39.480705 -104.614691 50 10889ft 250kts
15-Nov-18 13:32 39.532725 -104.598472 327 9066ft 229kts
15-Nov-18 13:33 39.555278 -104.623967 318 9013ft 226kts
15-Nov-18 13:34 39.604511 -104.666213 358 8934ft 226kts
15-Nov-18 13:35 39.666259 -104.662841 1 7199ft 214kts
15-Nov-18 13:36 39.722317 -104.661947 0 7010ft 174kts
15-Nov-18 13:37 39.767274 -104.661379 1 6616ft 148kts
15-Nov-18 13:38 39.808257 -104.660851 2 5830ft 150kts
15-Nov-18 13:39 39.842718 -104.660297 1 5403ft 46kts
15-Nov-18 13:40 39.848819 -104.661400 329 5402ft 0kts
15-Nov-18 13:41 39.851867 -104.662379 0 5412ft 16kts
15-Nov-18 13:42 39.856823 -104.662317 0 5425ft 25kts
15-Nov-18 13:43 39.860038 -104.662927 285 5423ft 23kts
15-Nov-18 13:44 39.860502 -104.670126 271 5412ft 14kts
15-Nov-18 13:45 39.859429 -104.672037 181 5407ft 0kts
15-Nov-18 13:46 39.859429 -104.672037 181 5407ft 0kts

Navigation Log

Ident Type
Flight plan parsing failed, navigation log unavailable